sensor_id;sensor_type;location;lat;lon;timestamp;P1;durP1;ratioP1;P2;durP2;ratioP2
17564;SDS011;62994;52.126;5.596;2023-07-20T00:02:33;4.25;;;2.90;;
17564;SDS011;62994;52.126;5.596;2023-07-20T00:05:00;3.63;;;3.40;;
17564;SDS011;62994;52.126;5.596;2023-07-20T00:07:35;3.35;;;3.10;;
17564;SDS011;62994;52.126;5.596;2023-07-20T00:10:21;3.30;;;3.10;;
17564;SDS011;62994;52.126;5.596;2023-07-20T00:12:50;2.85;;;2.75;;
17564;SDS011;62994;52.126;5.596;2023-07-20T00:15:22;2.40;;;2.30;;
17564;SDS011;62994;52.126;5.596;2023-07-20T00:17:49;2.55;;;2.35;;
17564;SDS011;62994;52.126;5.596;2023-07-20T00:20:18;2.15;;;2.05;;
17564;SDS011;62994;52.126;5.596;2023-07-20T00:22:47;2.20;;;2.10;;
17564;SDS011;62994;52.126;5.596;2023-07-20T00:25:18;2.15;;;2.00;;
17564;SDS011;62994;52.126;5.596;2023-07-20T00:27:47;2.03;;;1.92;;
17564;SDS011;62994;52.126;5.596;2023-07-20T00:30:14;1.85;;;1.75;;
17564;SDS011;62994;52.126;5.596;2023-07-20T00:32:52;2.65;;;1.90;;
17564;SDS011;62994;52.126;5.596;2023-07-20T00:35:19;1.60;;;1.60;;
17564;SDS011;62994;52.126;5.596;2023-07-20T00:37:48;1.90;;;1.80;;
17564;SDS011;62994;52.126;5.596;2023-07-20T00:40:27;1.77;;;1.67;;
17564;SDS011;62994;52.126;5.596;2023-07-20T00:43:02;1.65;;;1.60;;
17564;SDS011;62994;52.126;5.596;2023-07-20T00:45:35;1.67;;;1.67;;
17564;SDS011;62994;52.126;5.596;2023-07-20T00:48:09;1.70;;;1.63;;
17564;SDS011;62994;52.126;5.596;2023-07-20T00:50:37;1.33;;;1.33;;
17564;SDS011;62994;52.126;5.596;2023-07-20T00:53:12;1.38;;;1.38;;
17564;SDS011;62994;52.126;5.596;2023-07-20T00:55:39;1.15;;;1.15;;
17564;SDS011;62994;52.126;5.596;2023-07-20T00:58:09;1.45;;;1.38;;
17564;SDS011;62994;52.126;5.596;2023-07-20T01:00:36;1.40;;;1.27;;
17564;SDS011;62994;52.126;5.596;2023-07-20T01:03:10;1.55;;;1.55;;
17564;SDS011;62994;52.126;5.596;2023-07-20T01:05:45;1.30;;;1.20;;
17564;SDS011;62994;52.126;5.596;2023-07-20T01:08:28;1.10;;;1.10;;
17564;SDS011;62994;52.126;5.596;2023-07-20T01:11:07;1.30;;;1.30;;
17564;SDS011;62994;52.126;5.596;2023-07-20T01:13:38;1.10;;;1.10;;
17564;SDS011;62994;52.126;5.596;2023-07-20T01:16:06;1.02;;;1.02;;
17564;SDS011;62994;52.126;5.596;2023-07-20T01:18:40;1.30;;;1.13;;
17564;SDS011;62994;52.126;5.596;2023-07-20T01:21:18;1.15;;;1.15;;
17564;SDS011;62994;52.126;5.596;2023-07-20T01:30:34;1.33;;;1.23;;
17564;SDS011;62994;52.126;5.596;2023-07-20T01:33:17;1.23;;;1.23;;
17564;SDS011;62994;52.126;5.596;2023-07-20T01:35:50;2.42;;;1.52;;
17564;SDS011;62994;52.126;5.596;2023-07-20T01:38:22;1.30;;;1.30;;
17564;SDS011;62994;52.126;5.596;2023-07-20T01:40:51;1.10;;;1.10;;
17564;SDS011;62994;52.126;5.596;2023-07-20T01:43:20;1.30;;;1.30;;
17564;SDS011;62994;52.126;5.596;2023-07-20T01:45:47;5.22;;;1.60;;
17564;SDS011;62994;52.126;5.596;2023-07-20T01:48:15;1.10;;;1.10;;
17564;SDS011;62994;52.126;5.596;2023-07-20T01:50:43;1.27;;;1.27;;
17564;SDS011;62994;52.126;5.596;2023-07-20T01:53:20;1.42;;;1.42;;
17564;SDS011;62994;52.126;5.596;2023-07-20T01:55:51;1.38;;;1.30;;
17564;SDS011;62994;52.126;5.596;2023-07-20T01:58:19;1.30;;;1.20;;
17564;SDS011;62994;52.126;5.596;2023-07-20T02:00:49;1.20;;;1.20;;
17564;SDS011;62994;52.126;5.596;2023-07-20T02:03:17;1.48;;;1.48;;
17564;SDS011;62994;52.126;5.596;2023-07-20T02:05:48;1.58;;;1.55;;
17564;SDS011;62994;52.126;5.596;2023-07-20T02:11:07;1.40;;;1.40;;
17564;SDS011;62994;52.126;5.596;2023-07-20T02:13:36;1.50;;;1.50;;
17564;SDS011;62994;52.126;5.596;2023-07-20T02:16:04;1.20;;;1.20;;
17564;SDS011;62994;52.126;5.596;2023-07-20T02:18:38;1.38;;;1.38;;
17564;SDS011;62994;52.126;5.596;2023-07-20T02:21:15;1.23;;;1.23;;
17564;SDS011;62994;52.126;5.596;2023-07-20T02:23:42;1.40;;;1.40;;
17564;SDS011;62994;52.126;5.596;2023-07-20T02:26:11;1.40;;;1.40;;
17564;SDS011;62994;52.126;5.596;2023-07-20T02:28:38;1.40;;;1.40;;
17564;SDS011;62994;52.126;5.596;2023-07-20T02:31:06;1.50;;;1.50;;
17564;SDS011;62994;52.126;5.596;2023-07-20T02:33:35;1.60;;;1.55;;
17564;SDS011;62994;52.126;5.596;2023-07-20T02:36:04;1.20;;;1.20;;
17564;SDS011;62994;52.126;5.596;2023-07-20T02:38:40;1.00;;;1.00;;
17564;SDS011;62994;52.126;5.596;2023-07-20T02:41:07;1.38;;;1.30;;
17564;SDS011;62994;52.126;5.596;2023-07-20T02:43:37;1.80;;;1.70;;
17564;SDS011;62994;52.126;5.596;2023-07-20T02:46:05;1.50;;;1.50;;
17564;SDS011;62994;52.126;5.596;2023-07-20T02:48:35;1.20;;;1.20;;
17564;SDS011;62994;52.126;5.596;2023-07-20T02:51:15;1.50;;;1.50;;
17564;SDS011;62994;52.126;5.596;2023-07-20T02:53:50;1.50;;;1.50;;
17564;SDS011;62994;52.126;5.596;2023-07-20T02:56:19;1.80;;;1.70;;
17564;SDS011;62994;52.126;5.596;2023-07-20T02:58:53;1.80;;;1.70;;
17564;SDS011;62994;52.126;5.596;2023-07-20T03:01:24;2.08;;;1.98;;
17564;SDS011;62994;52.126;5.596;2023-07-20T03:03:54;1.90;;;1.80;;
17564;SDS011;62994;52.126;5.596;2023-07-20T03:06:23;1.88;;;1.80;;
17564;SDS011;62994;52.126;5.596;2023-07-20T03:08:51;1.98;;;1.88;;
17564;SDS011;62994;52.126;5.596;2023-07-20T03:11:20;1.60;;;1.60;;
17564;SDS011;62994;52.126;5.596;2023-07-20T03:13:50;1.85;;;1.75;;
17564;SDS011;62994;52.126;5.596;2023-07-20T03:16:28;1.98;;;1.92;;
17564;SDS011;62994;52.126;5.596;2023-07-20T03:30:14;1.80;;;1.70;;
17564;SDS011;62994;52.126;5.596;2023-07-20T03:33:10;2.00;;;1.90;;
17564;SDS011;62994;52.126;5.596;2023-07-20T03:36:17;1.90;;;1.80;;
17564;SDS011;62994;52.126;5.596;2023-07-20T03:39:12;2.10;;;2.00;;
17564;SDS011;62994;52.126;5.596;2023-07-20T03:41:39;2.28;;;2.03;;
17564;SDS011;62994;52.126;5.596;2023-07-20T03:44:06;1.98;;;1.85;;
17564;SDS011;62994;52.126;5.596;2023-07-20T03:46:34;2.03;;;1.98;;
17564;SDS011;62994;52.126;5.596;2023-07-20T03:49:02;1.92;;;1.92;;
17564;SDS011;62994;52.126;5.596;2023-07-20T03:51:31;1.98;;;1.98;;
17564;SDS011;62994;52.126;5.596;2023-07-20T03:53:58;2.30;;;2.20;;
17564;SDS011;62994;52.126;5.596;2023-07-20T03:56:25;2.03;;;1.98;;
17564;SDS011;62994;52.126;5.596;2023-07-20T03:58:52;1.75;;;1.75;;
17564;SDS011;62994;52.126;5.596;2023-07-20T04:01:19;2.30;;;2.20;;
17564;SDS011;62994;52.126;5.596;2023-07-20T04:03:47;2.10;;;2.00;;
17564;SDS011;62994;52.126;5.596;2023-07-20T04:06:14;1.75;;;1.75;;
17564;SDS011;62994;52.126;5.596;2023-07-20T04:08:42;2.30;;;2.20;;
17564;SDS011;62994;52.126;5.596;2023-07-20T04:11:09;2.33;;;2.22;;
17564;SDS011;62994;52.126;5.596;2023-07-20T04:13:36;2.30;;;2.20;;
17564;SDS011;62994;52.126;5.596;2023-07-20T04:16:06;2.40;;;2.30;;
17564;SDS011;62994;52.126;5.596;2023-07-20T04:18:33;2.38;;;2.28;;
17564;SDS011;62994;52.126;5.596;2023-07-20T04:21:02;6.00;;;2.60;;
17564;SDS011;62994;52.126;5.596;2023-07-20T04:23:29;2.63;;;2.53;;
17564;SDS011;62994;52.126;5.596;2023-07-20T04:25:56;2.65;;;2.45;;
17564;SDS011;62994;52.126;5.596;2023-07-20T04:28:23;2.00;;;2.00;;
17564;SDS011;62994;52.126;5.596;2023-07-20T04:30:50;2.10;;;2.00;;
17564;SDS011;62994;52.126;5.596;2023-07-20T04:33:17;2.15;;;2.05;;
17564;SDS011;62994;52.126;5.596;2023-07-20T04:35:45;2.60;;;2.40;;
17564;SDS011;62994;52.126;5.596;2023-07-20T04:38:15;2.35;;;2.25;;
17564;SDS011;62994;52.126;5.596;2023-07-20T04:40:43;2.40;;;2.30;;
17564;SDS011;62994;52.126;5.596;2023-07-20T04:43:10;2.97;;;2.80;;
17564;SDS011;62994;52.126;5.596;2023-07-20T04:45:37;2.58;;;2.38;;
17564;SDS011;62994;52.126;5.596;2023-07-20T04:48:06;2.80;;;2.70;;
17564;SDS011;62994;52.126;5.596;2023-07-20T04:50:36;2.40;;;2.20;;
17564;SDS011;62994;52.126;5.596;2023-07-20T04:53:03;4.40;;;2.53;;
17564;SDS011;62994;52.126;5.596;2023-07-20T04:55:31;2.40;;;2.30;;
17564;SDS011;62994;52.126;5.596;2023-07-20T04:57:59;2.20;;;2.20;;
17564;SDS011;62994;52.126;5.596;2023-07-20T05:00:26;2.38;;;2.28;;
17564;SDS011;62994;52.126;5.596;2023-07-20T05:02:53;2.22;;;2.05;;
17564;SDS011;62994;52.126;5.596;2023-07-20T05:05:21;2.35;;;2.25;;
17564;SDS011;62994;52.126;5.596;2023-07-20T05:07:48;2.30;;;2.20;;
17564;SDS011;62994;52.126;5.596;2023-07-20T05:10:15;2.28;;;2.17;;
17564;SDS011;62994;52.126;5.596;2023-07-20T05:12:44;2.30;;;2.20;;
17564;SDS011;62994;52.126;5.596;2023-07-20T05:15:11;1.67;;;1.58;;
17564;SDS011;62994;52.126;5.596;2023-07-20T05:17:38;4.20;;;2.03;;
17564;SDS011;62994;52.126;5.596;2023-07-20T05:20:06;2.55;;;2.45;;
17564;SDS011;62994;52.126;5.596;2023-07-20T05:22:35;2.20;;;2.10;;
17564;SDS011;62994;52.126;5.596;2023-07-20T05:25:05;4.28;;;2.10;;
17564;SDS011;62994;52.126;5.596;2023-07-20T05:27:33;1.92;;;1.92;;
17564;SDS011;62994;52.126;5.596;2023-07-20T05:30:02;2.28;;;2.17;;
17564;SDS011;62994;52.126;5.596;2023-07-20T05:32:29;2.30;;;2.20;;
17564;SDS011;62994;52.126;5.596;2023-07-20T05:34:56;2.30;;;2.20;;
17564;SDS011;62994;52.126;5.596;2023-07-20T05:37:23;2.15;;;2.05;;
17564;SDS011;62994;52.126;5.596;2023-07-20T05:39:50;2.25;;;2.15;;
17564;SDS011;62994;52.126;5.596;2023-07-20T05:42:17;2.50;;;2.40;;
17564;SDS011;62994;52.126;5.596;2023-07-20T05:44:46;2.20;;;2.10;;
17564;SDS011;62994;52.126;5.596;2023-07-20T05:47:16;2.45;;;2.35;;
17564;SDS011;62994;52.126;5.596;2023-07-20T05:49:43;2.55;;;2.35;;
17564;SDS011;62994;52.126;5.596;2023-07-20T05:52:10;1.83;;;1.83;;
17564;SDS011;62994;52.126;5.596;2023-07-20T05:54:37;2.72;;;2.53;;
17564;SDS011;62994;52.126;5.596;2023-07-20T05:57:09;1.90;;;1.80;;
17564;SDS011;62994;52.126;5.596;2023-07-20T05:59:44;2.03;;;1.90;;
17564;SDS011;62994;52.126;5.596;2023-07-20T06:02:11;2.40;;;2.30;;
17564;SDS011;62994;52.126;5.596;2023-07-20T06:04:41;2.17;;;2.08;;
17564;SDS011;62994;52.126;5.596;2023-07-20T06:07:08;2.33;;;2.08;;
17564;SDS011;62994;52.126;5.596;2023-07-20T06:09:35;2.20;;;2.10;;
17564;SDS011;62994;52.126;5.596;2023-07-20T06:12:02;2.50;;;2.30;;
17564;SDS011;62994;52.126;5.596;2023-07-20T06:14:30;2.00;;;1.90;;
17564;SDS011;62994;52.126;5.596;2023-07-20T06:16:57;1.70;;;1.70;;
17564;SDS011;62994;52.126;5.596;2023-07-20T06:19:24;1.00;;;1.00;;
17564;SDS011;62994;52.126;5.596;2023-07-20T06:21:53;1.73;;;1.48;;
17564;SDS011;62994;52.126;5.596;2023-07-20T06:24:20;1.38;;;1.38;;
17564;SDS011;62994;52.126;5.596;2023-07-20T06:26:47;1.40;;;1.40;;
17564;SDS011;62994;52.126;5.596;2023-07-20T06:29:14;1.50;;;1.50;;
17564;SDS011;62994;52.126;5.596;2023-07-20T06:31:41;1.60;;;1.50;;
17564;SDS011;62994;52.126;5.596;2023-07-20T06:34:10;2.10;;;1.55;;
17564;SDS011;62994;52.126;5.596;2023-07-20T06:36:37;2.00;;;1.80;;
17564;SDS011;62994;52.126;5.596;2023-07-20T06:39:05;2.13;;;2.00;;
17564;SDS011;62994;52.126;5.596;2023-07-20T06:41:33;1.52;;;1.42;;
17564;SDS011;62994;52.126;5.596;2023-07-20T06:44:00;1.55;;;1.45;;
17564;SDS011;62994;52.126;5.596;2023-07-20T06:46:32;2.05;;;1.45;;
17564;SDS011;62994;52.126;5.596;2023-07-20T06:49:08;1.67;;;1.58;;
17564;SDS011;62994;52.126;5.596;2023-07-20T06:51:40;1.10;;;1.10;;
17564;SDS011;62994;52.126;5.596;2023-07-20T06:54:08;1.40;;;1.30;;
17564;SDS011;62994;52.126;5.596;2023-07-20T06:56:37;1.55;;;1.45;;
17564;SDS011;62994;52.126;5.596;2023-07-20T06:59:04;1.60;;;1.50;;
17564;SDS011;62994;52.126;5.596;2023-07-20T07:01:31;1.40;;;1.30;;
17564;SDS011;62994;52.126;5.596;2023-07-20T07:03:58;1.10;;;1.10;;
17564;SDS011;62994;52.126;5.596;2023-07-20T07:06:26;1.20;;;1.20;;
17564;SDS011;62994;52.126;5.596;2023-07-20T07:08:53;1.40;;;1.30;;
17564;SDS011;62994;52.126;5.596;2023-07-20T07:11:22;0.98;;;0.98;;
17564;SDS011;62994;52.126;5.596;2023-07-20T07:13:49;1.00;;;1.00;;
17564;SDS011;62994;52.126;5.596;2023-07-20T07:16:16;1.85;;;0.90;;
17564;SDS011;62994;52.126;5.596;2023-07-20T07:18:44;1.15;;;1.05;;
17564;SDS011;62994;52.126;5.596;2023-07-20T07:21:11;0.98;;;0.93;;
17564;SDS011;62994;52.126;5.596;2023-07-20T07:23:40;0.75;;;0.75;;
17564;SDS011;62994;52.126;5.596;2023-07-20T07:26:07;1.00;;;1.00;;
17564;SDS011;62994;52.126;5.596;2023-07-20T07:28:35;0.80;;;0.80;;
17564;SDS011;62994;52.126;5.596;2023-07-20T07:31:09;1.63;;;1.13;;
17564;SDS011;62994;52.126;5.596;2023-07-20T07:33:36;0.73;;;0.73;;
17564;SDS011;62994;52.126;5.596;2023-07-20T07:36:03;1.55;;;0.70;;
17564;SDS011;62994;52.126;5.596;2023-07-20T07:38:30;0.90;;;0.90;;
17564;SDS011;62994;52.126;5.596;2023-07-20T07:40:58;0.85;;;0.85;;
17564;SDS011;62994;52.126;5.596;2023-07-20T07:43:25;0.93;;;0.80;;
17564;SDS011;62994;52.126;5.596;2023-07-20T07:45:55;0.82;;;0.82;;
17564;SDS011;62994;52.126;5.596;2023-07-20T07:48:22;1.15;;;0.80;;
17564;SDS011;62994;52.126;5.596;2023-07-20T07:50:50;0.80;;;0.80;;
17564;SDS011;62994;52.126;5.596;2023-07-20T07:53:20;0.60;;;0.60;;
17564;SDS011;62994;52.126;5.596;2023-07-20T07:55:47;1.63;;;0.60;;
17564;SDS011;62994;52.126;5.596;2023-07-20T07:58:14;0.85;;;0.80;;
17564;SDS011;62994;52.126;5.596;2023-07-20T08:00:42;0.60;;;0.60;;
17564;SDS011;62994;52.126;5.596;2023-07-20T08:03:10;0.95;;;0.70;;
17564;SDS011;62994;52.126;5.596;2023-07-20T08:05:38;0.98;;;0.73;;
17564;SDS011;62994;52.126;5.596;2023-07-20T08:08:05;0.68;;;0.68;;
17564;SDS011;62994;52.126;5.596;2023-07-20T08:10:33;0.70;;;0.70;;
17564;SDS011;62994;52.126;5.596;2023-07-20T08:13:00;0.70;;;0.60;;
17564;SDS011;62994;52.126;5.596;2023-07-20T08:15:27;0.70;;;0.70;;
17564;SDS011;62994;52.126;5.596;2023-07-20T08:17:54;0.90;;;0.90;;
17564;SDS011;62994;52.126;5.596;2023-07-20T08:20:23;0.88;;;0.77;;
17564;SDS011;62994;52.126;5.596;2023-07-20T08:22:51;0.90;;;0.90;;
17564;SDS011;62994;52.126;5.596;2023-07-20T08:25:19;0.80;;;0.80;;
17564;SDS011;62994;52.126;5.596;2023-07-20T08:27:46;0.77;;;0.77;;
17564;SDS011;62994;52.126;5.596;2023-07-20T08:30:13;0.87;;;0.87;;
17564;SDS011;62994;52.126;5.596;2023-07-20T08:32:40;0.70;;;0.70;;
17564;SDS011;62994;52.126;5.596;2023-07-20T08:35:08;0.60;;;0.60;;
17564;SDS011;62994;52.126;5.596;2023-07-20T08:37:36;0.73;;;0.73;;
17564;SDS011;62994;52.126;5.596;2023-07-20T08:40:06;0.50;;;0.50;;
17564;SDS011;62994;52.126;5.596;2023-07-20T08:42:34;0.60;;;0.60;;
17564;SDS011;62994;52.126;5.596;2023-07-20T08:45:02;0.77;;;0.77;;
17564;SDS011;62994;52.126;5.596;2023-07-20T08:47:34;0.50;;;0.50;;
17564;SDS011;62994;52.126;5.596;2023-07-20T08:50:02;0.60;;;0.60;;
17564;SDS011;62994;52.126;5.596;2023-07-20T08:52:32;0.40;;;0.40;;
17564;SDS011;62994;52.126;5.596;2023-07-20T08:55:02;0.43;;;0.43;;
17564;SDS011;62994;52.126;5.596;2023-07-20T08:57:30;0.80;;;0.70;;
17564;SDS011;62994;52.126;5.596;2023-07-20T08:59:59;0.50;;;0.50;;
17564;SDS011;62994;52.126;5.596;2023-07-20T09:02:29;0.55;;;0.55;;
17564;SDS011;62994;52.126;5.596;2023-07-20T09:05:01;0.50;;;0.50;;
17564;SDS011;62994;52.126;5.596;2023-07-20T09:07:29;0.65;;;0.65;;
17564;SDS011;62994;52.126;5.596;2023-07-20T09:09:58;0.60;;;0.60;;
17564;SDS011;62994;52.126;5.596;2023-07-20T09:12:32;0.60;;;0.60;;
17564;SDS011;62994;52.126;5.596;2023-07-20T09:15:02;0.50;;;0.50;;
17564;SDS011;62994;52.126;5.596;2023-07-20T09:17:29;0.85;;;0.80;;
17564;SDS011;62994;52.126;5.596;2023-07-20T09:19:56;1.05;;;1.05;;
17564;SDS011;62994;52.126;5.596;2023-07-20T09:22:29;1.10;;;1.00;;
17564;SDS011;62994;52.126;5.596;2023-07-20T09:24:56;0.80;;;0.80;;
17564;SDS011;62994;52.126;5.596;2023-07-20T09:27:29;0.82;;;0.82;;
17564;SDS011;62994;52.126;5.596;2023-07-20T09:30:03;0.70;;;0.70;;
17564;SDS011;62994;52.126;5.596;2023-07-20T09:32:38;3.03;;;0.80;;
17564;SDS011;62994;52.126;5.596;2023-07-20T09:35:06;0.88;;;0.88;;
17564;SDS011;62994;52.126;5.596;2023-07-20T09:37:38;0.50;;;0.50;;
17564;SDS011;62994;52.126;5.596;2023-07-20T09:40:06;0.63;;;0.63;;
17564;SDS011;62994;52.126;5.596;2023-07-20T09:42:36;1.25;;;0.73;;
17564;SDS011;62994;52.126;5.596;2023-07-20T09:45:04;0.82;;;0.82;;
17564;SDS011;62994;52.126;5.596;2023-07-20T09:47:35;0.73;;;0.73;;
17564;SDS011;62994;52.126;5.596;2023-07-20T09:50:03;1.13;;;0.82;;
17564;SDS011;62994;52.126;5.596;2023-07-20T09:52:35;0.90;;;0.90;;
17564;SDS011;62994;52.126;5.596;2023-07-20T09:55:06;0.60;;;0.60;;
17564;SDS011;62994;52.126;5.596;2023-07-20T09:57:36;0.57;;;0.57;;
17564;SDS011;62994;52.126;5.596;2023-07-20T10:00:04;0.95;;;0.68;;
17564;SDS011;62994;52.126;5.596;2023-07-20T10:02:41;0.60;;;0.60;;
17564;SDS011;62994;52.126;5.596;2023-07-20T10:05:10;0.68;;;0.68;;
17564;SDS011;62994;52.126;5.596;2023-07-20T10:07:42;0.70;;;0.70;;
17564;SDS011;62994;52.126;5.596;2023-07-20T10:10:13;0.60;;;0.60;;
17564;SDS011;62994;52.126;5.596;2023-07-20T10:12:43;0.63;;;0.63;;
17564;SDS011;62994;52.126;5.596;2023-07-20T10:15:14;0.52;;;0.52;;
17564;SDS011;62994;52.126;5.596;2023-07-20T10:17:47;0.90;;;0.90;;
17564;SDS011;62994;52.126;5.596;2023-07-20T10:20:21;0.70;;;0.70;;
17564;SDS011;62994;52.126;5.596;2023-07-20T10:22:50;0.77;;;0.60;;
17564;SDS011;62994;52.126;5.596;2023-07-20T10:25:20;0.70;;;0.70;;
17564;SDS011;62994;52.126;5.596;2023-07-20T10:27:50;0.43;;;0.43;;
17564;SDS011;62994;52.126;5.596;2023-07-20T10:30:17;1.13;;;0.70;;
17564;SDS011;62994;52.126;5.596;2023-07-20T10:32:45;1.50;;;0.90;;
17564;SDS011;62994;52.126;5.596;2023-07-20T10:35:13;0.70;;;0.70;;
17564;SDS011;62994;52.126;5.596;2023-07-20T10:37:48;0.50;;;0.50;;
17564;SDS011;62994;52.126;5.596;2023-07-20T10:40:26;0.40;;;0.40;;
17564;SDS011;62994;52.126;5.596;2023-07-20T10:43:00;0.60;;;0.60;;
17564;SDS011;62994;52.126;5.596;2023-07-20T10:48:18;0.68;;;0.68;;
17564;SDS011;62994;52.126;5.596;2023-07-20T10:53:35;1.35;;;0.80;;
17564;SDS011;62994;52.126;5.596;2023-07-20T10:56:06;0.90;;;0.90;;
17564;SDS011;62994;52.126;5.596;2023-07-20T10:58:35;0.75;;;0.75;;
17564;SDS011;62994;52.126;5.596;2023-07-20T11:01:03;0.60;;;0.60;;
17564;SDS011;62994;52.126;5.596;2023-07-20T11:03:32;0.77;;;0.77;;
17564;SDS011;62994;52.126;5.596;2023-07-20T11:06:00;0.68;;;0.68;;
17564;SDS011;62994;52.126;5.596;2023-07-20T11:09:03;1.98;;;0.60;;
17564;SDS011;62994;52.126;5.596;2023-07-20T11:11:36;0.50;;;0.50;;
17564;SDS011;62994;52.126;5.596;2023-07-20T11:14:06;1.48;;;0.60;;
17564;SDS011;62994;52.126;5.596;2023-07-20T11:16:34;0.75;;;0.75;;
17564;SDS011;62994;52.126;5.596;2023-07-20T11:19:03;1.15;;;1.15;;
17564;SDS011;62994;52.126;5.596;2023-07-20T11:21:35;0.50;;;0.50;;
17564;SDS011;62994;52.126;5.596;2023-07-20T11:24:03;0.57;;;0.57;;
17564;SDS011;62994;52.126;5.596;2023-07-20T11:26:39;0.80;;;0.80;;
17564;SDS011;62994;52.126;5.596;2023-07-20T11:29:08;0.70;;;0.70;;
17564;SDS011;62994;52.126;5.596;2023-07-20T11:31:35;0.50;;;0.50;;
17564;SDS011;62994;52.126;5.596;2023-07-20T11:34:03;0.57;;;0.55;;
17564;SDS011;62994;52.126;5.596;2023-07-20T11:36:30;0.63;;;0.60;;
17564;SDS011;62994;52.126;5.596;2023-07-20T11:38:58;1.23;;;0.50;;
17564;SDS011;62994;52.126;5.596;2023-07-20T11:41:25;0.60;;;0.60;;
17564;SDS011;62994;52.126;5.596;2023-07-20T11:43:53;0.55;;;0.55;;
17564;SDS011;62994;52.126;5.596;2023-07-20T11:46:22;0.50;;;0.50;;
17564;SDS011;62994;52.126;5.596;2023-07-20T11:48:55;0.50;;;0.50;;
17564;SDS011;62994;52.126;5.596;2023-07-20T11:51:23;0.57;;;0.57;;
17564;SDS011;62994;52.126;5.596;2023-07-20T11:53:51;0.70;;;0.70;;
17564;SDS011;62994;52.126;5.596;2023-07-20T11:56:18;0.68;;;0.68;;
17564;SDS011;62994;52.126;5.596;2023-07-20T11:58:45;0.60;;;0.60;;
17564;SDS011;62994;52.126;5.596;2023-07-20T12:01:12;0.60;;;0.60;;
17564;SDS011;62994;52.126;5.596;2023-07-20T12:03:41;0.55;;;0.55;;
17564;SDS011;62994;52.126;5.596;2023-07-20T12:06:08;0.60;;;0.60;;
17564;SDS011;62994;52.126;5.596;2023-07-20T12:08:38;0.50;;;0.50;;
17564;SDS011;62994;52.126;5.596;2023-07-20T12:11:06;0.60;;;0.60;;
17564;SDS011;62994;52.126;5.596;2023-07-20T12:13:36;0.60;;;0.60;;
17564;SDS011;62994;52.126;5.596;2023-07-20T12:16:08;0.50;;;0.50;;
17564;SDS011;62994;52.126;5.596;2023-07-20T12:18:37;0.95;;;0.70;;
17564;SDS011;62994;52.126;5.596;2023-07-20T12:21:06;0.50;;;0.50;;
17564;SDS011;62994;52.126;5.596;2023-07-20T12:23:41;0.65;;;0.65;;
17564;SDS011;62994;52.126;5.596;2023-07-20T12:26:09;0.82;;;0.70;;
17564;SDS011;62994;52.126;5.596;2023-07-20T12:28:39;0.50;;;0.50;;
17564;SDS011;62994;52.126;5.596;2023-07-20T12:31:12;1.35;;;0.60;;
17564;SDS011;62994;52.126;5.596;2023-07-20T12:33:44;0.40;;;0.40;;
17564;SDS011;62994;52.126;5.596;2023-07-20T12:36:13;0.55;;;0.55;;
17564;SDS011;62994;52.126;5.596;2023-07-20T12:38:40;0.52;;;0.52;;
17564;SDS011;62994;52.126;5.596;2023-07-20T12:41:07;0.50;;;0.50;;
17564;SDS011;62994;52.126;5.596;2023-07-20T12:43:37;2.38;;;0.77;;
17564;SDS011;62994;52.126;5.596;2023-07-20T12:46:05;0.60;;;0.60;;
17564;SDS011;62994;52.126;5.596;2023-07-20T12:48:32;0.60;;;0.60;;
17564;SDS011;62994;52.126;5.596;2023-07-20T12:51:02;0.93;;;0.60;;
17564;SDS011;62994;52.126;5.596;2023-07-20T12:53:31;0.60;;;0.60;;
17564;SDS011;62994;52.126;5.596;2023-07-20T12:55:58;0.60;;;0.60;;
17564;SDS011;62994;52.126;5.596;2023-07-20T12:58:26;0.60;;;0.60;;
17564;SDS011;62994;52.126;5.596;2023-07-20T13:00:53;0.60;;;0.60;;
17564;SDS011;62994;52.126;5.596;2023-07-20T13:03:20;1.38;;;0.50;;
17564;SDS011;62994;52.126;5.596;2023-07-20T13:05:47;0.52;;;0.52;;
17564;SDS011;62994;52.126;5.596;2023-07-20T13:08:15;0.57;;;0.57;;
17564;SDS011;62994;52.126;5.596;2023-07-20T13:10:44;0.40;;;0.40;;
17564;SDS011;62994;52.126;5.596;2023-07-20T13:13:11;1.75;;;0.60;;
17564;SDS011;62994;52.126;5.596;2023-07-20T13:15:41;0.65;;;0.65;;
17564;SDS011;62994;52.126;5.596;2023-07-20T13:18:08;0.60;;;0.60;;
17564;SDS011;62994;52.126;5.596;2023-07-20T13:20:37;0.63;;;0.63;;
17564;SDS011;62994;52.126;5.596;2023-07-20T13:23:06;0.93;;;0.57;;
17564;SDS011;62994;52.126;5.596;2023-07-20T13:25:33;0.40;;;0.40;;
17564;SDS011;62994;52.126;5.596;2023-07-20T13:28:01;1.65;;;0.70;;
17564;SDS011;62994;52.126;5.596;2023-07-20T13:30:28;0.63;;;0.63;;
17564;SDS011;62994;52.126;5.596;2023-07-20T13:32:56;0.70;;;0.70;;
17564;SDS011;62994;52.126;5.596;2023-07-20T13:35:23;0.60;;;0.60;;
17564;SDS011;62994;52.126;5.596;2023-07-20T13:37:50;0.60;;;0.60;;
17564;SDS011;62994;52.126;5.596;2023-07-20T13:40:17;0.52;;;0.52;;
17564;SDS011;62994;52.126;5.596;2023-07-20T13:42:44;0.70;;;0.70;;
17564;SDS011;62994;52.126;5.596;2023-07-20T13:45:13;0.50;;;0.50;;
17564;SDS011;62994;52.126;5.596;2023-07-20T13:47:40;0.68;;;0.68;;
17564;SDS011;62994;52.126;5.596;2023-07-20T13:50:07;1.33;;;0.85;;
17564;SDS011;62994;52.126;5.596;2023-07-20T13:52:35;0.60;;;0.60;;
17564;SDS011;62994;52.126;5.596;2023-07-20T13:55:03;0.50;;;0.50;;
17564;SDS011;62994;52.126;5.596;2023-07-20T13:57:30;0.52;;;0.52;;
17564;SDS011;62994;52.126;5.596;2023-07-20T13:59:57;0.60;;;0.60;;
17564;SDS011;62994;52.126;5.596;2023-07-20T14:02:27;0.77;;;0.77;;
17564;SDS011;62994;52.126;5.596;2023-07-20T14:04:54;0.95;;;0.70;;
17564;SDS011;62994;52.126;5.596;2023-07-20T14:07:22;0.70;;;0.70;;
17564;SDS011;62994;52.126;5.596;2023-07-20T14:09:49;2.20;;;0.80;;
17564;SDS011;62994;52.126;5.596;2023-07-20T14:12:18;0.90;;;0.90;;
17564;SDS011;62994;52.126;5.596;2023-07-20T14:14:50;0.95;;;0.95;;
17564;SDS011;62994;52.126;5.596;2023-07-20T14:17:17;0.80;;;0.80;;
17564;SDS011;62994;52.126;5.596;2023-07-20T14:19:45;0.80;;;0.80;;
17564;SDS011;62994;52.126;5.596;2023-07-20T14:22:12;2.95;;;0.60;;
17564;SDS011;62994;52.126;5.596;2023-07-20T14:24:39;1.83;;;1.00;;
17564;SDS011;62994;52.126;5.596;2023-07-20T14:27:08;0.80;;;0.80;;
17564;SDS011;62994;52.126;5.596;2023-07-20T14:29:36;0.60;;;0.60;;
17564;SDS011;62994;52.126;5.596;2023-07-20T14:32:03;0.70;;;0.70;;
17564;SDS011;62994;52.126;5.596;2023-07-20T14:34:32;0.65;;;0.65;;
17564;SDS011;62994;52.126;5.596;2023-07-20T14:37:01;1.50;;;0.80;;
17564;SDS011;62994;52.126;5.596;2023-07-20T14:39:29;0.80;;;0.80;;
17564;SDS011;62994;52.126;5.596;2023-07-20T14:41:56;1.73;;;0.80;;
17564;SDS011;62994;52.126;5.596;2023-07-20T14:44:28;0.65;;;0.65;;
17564;SDS011;62994;52.126;5.596;2023-07-20T14:46:56;0.82;;;0.60;;
17564;SDS011;62994;52.126;5.596;2023-07-20T14:49:26;1.20;;;1.10;;
17564;SDS011;62994;52.126;5.596;2023-07-20T14:51:53;1.05;;;0.70;;
17564;SDS011;62994;52.126;5.596;2023-07-20T14:54:21;1.08;;;0.93;;
17564;SDS011;62994;52.126;5.596;2023-07-20T14:56:49;0.60;;;0.60;;
17564;SDS011;62994;52.126;5.596;2023-07-20T14:59:18;0.70;;;0.70;;
17564;SDS011;62994;52.126;5.596;2023-07-20T15:01:51;0.63;;;0.63;;
17564;SDS011;62994;52.126;5.596;2023-07-20T15:04:18;1.10;;;0.60;;
17564;SDS011;62994;52.126;5.596;2023-07-20T15:06:45;0.55;;;0.55;;
17564;SDS011;62994;52.126;5.596;2023-07-20T15:09:16;0.60;;;0.60;;
17564;SDS011;62994;52.126;5.596;2023-07-20T15:11:45;3.58;;;0.70;;
17564;SDS011;62994;52.126;5.596;2023-07-20T15:14:15;0.80;;;0.80;;
17564;SDS011;62994;52.126;5.596;2023-07-20T15:16:44;0.70;;;0.70;;
17564;SDS011;62994;52.126;5.596;2023-07-20T15:19:12;0.88;;;0.88;;
17564;SDS011;62994;52.126;5.596;2023-07-20T15:21:42;0.70;;;0.70;;
17564;SDS011;62994;52.126;5.596;2023-07-20T15:24:09;2.15;;;0.88;;
17564;SDS011;62994;52.126;5.596;2023-07-20T15:26:36;0.57;;;0.57;;
17564;SDS011;62994;52.126;5.596;2023-07-20T15:29:05;0.60;;;0.60;;